sensor_id;sensor_type;location;lat;lon;timestamp;temperature;humidity
26907;DHT22;14472;56.880;16.658;2023-07-16T00:01:22;20.80;1.00
26907;DHT22;14472;56.880;16.658;2023-07-16T00:03:47;20.80;1.00
26907;DHT22;14472;56.880;16.658;2023-07-16T00:06:13;20.80;1.00
26907;DHT22;14472;56.880;16.658;2023-07-16T00:08:39;20.70;1.00
26907;DHT22;14472;56.880;16.658;2023-07-16T00:11:05;20.70;1.00
26907;DHT22;14472;56.880;16.658;2023-07-16T00:13:30;20.70;1.00
26907;DHT22;14472;56.880;16.658;2023-07-16T00:15:56;20.70;1.00
26907;DHT22;14472;56.880;16.658;2023-07-16T00:18:22;20.70;1.00
26907;DHT22;14472;56.880;16.658;2023-07-16T00:20:48;20.70;1.00
26907;DHT22;14472;56.880;16.658;2023-07-16T00:23:13;20.70;1.00
26907;DHT22;14472;56.880;16.658;2023-07-16T00:25:39;20.70;1.00
26907;DHT22;14472;56.880;16.658;2023-07-16T00:28:05;20.70;1.00
26907;DHT22;14472;56.880;16.658;2023-07-16T00:30:30;20.70;1.00
26907;DHT22;14472;56.880;16.658;2023-07-16T00:32:56;20.60;1.00
26907;DHT22;14472;56.880;16.658;2023-07-16T00:35:22;20.70;1.00
26907;DHT22;14472;56.880;16.658;2023-07-16T00:37:47;20.70;1.00
26907;DHT22;14472;56.880;16.658;2023-07-16T00:40:13;20.70;1.00
26907;DHT22;14472;56.880;16.658;2023-07-16T00:42:39;20.70;1.00
26907;DHT22;14472;56.880;16.658;2023-07-16T00:45:11;20.70;1.00
26907;DHT22;14472;56.880;16.658;2023-07-16T00:47:38;20.70;1.00
26907;DHT22;14472;56.880;16.658;2023-07-16T00:50:04;20.70;1.00
26907;DHT22;14472;56.880;16.658;2023-07-16T00:52:29;20.80;1.00
26907;DHT22;14472;56.880;16.658;2023-07-16T00:54:58;20.70;1.00
26907;DHT22;14472;56.880;16.658;2023-07-16T00:57:24;20.80;1.00
26907;DHT22;14472;56.880;16.658;2023-07-16T00:59:50;20.80;1.00
26907;DHT22;14472;56.880;16.658;2023-07-16T01:02:16;20.70;1.00
26907;DHT22;14472;56.880;16.658;2023-07-16T01:04:42;20.80;1.00
26907;DHT22;14472;56.880;16.658;2023-07-16T01:07:08;20.80;1.00
26907;DHT22;14472;56.880;16.658;2023-07-16T01:09:41;20.80;1.00
26907;DHT22;14472;56.880;16.658;2023-07-16T01:12:07;20.90;1.00
26907;DHT22;14472;56.880;16.658;2023-07-16T01:14:34;20.90;1.00
26907;DHT22;14472;56.880;16.658;2023-07-16T01:17:05;20.80;1.00
26907;DHT22;14472;56.880;16.658;2023-07-16T01:19:32;20.90;1.00
26907;DHT22;14472;56.880;16.658;2023-07-16T01:27:59;20.90;1.00
26907;DHT22;14472;56.880;16.658;2023-07-16T01:30:27;20.90;1.00
26907;DHT22;14472;56.880;16.658;2023-07-16T01:32:53;20.90;1.00
26907;DHT22;14472;56.880;16.658;2023-07-16T01:35:21;20.80;1.00
26907;DHT22;14472;56.880;16.658;2023-07-16T01:37:47;20.90;1.00
26907;DHT22;14472;56.880;16.658;2023-07-16T01:40:13;20.80;1.00
26907;DHT22;14472;56.880;16.658;2023-07-16T01:42:40;20.80;1.00
26907;DHT22;14472;56.880;16.658;2023-07-16T01:45:06;20.80;1.00
26907;DHT22;14472;56.880;16.658;2023-07-16T01:50:34;20.80;1.00
26907;DHT22;14472;56.880;16.658;2023-07-16T01:53:00;20.80;1.00
26907;DHT22;14472;56.880;16.658;2023-07-16T01:55:25;20.80;1.00
26907;DHT22;14472;56.880;16.658;2023-07-16T01:57:51;20.80;1.00
26907;DHT22;14472;56.880;16.658;2023-07-16T02:00:17;20.80;1.00
26907;DHT22;14472;56.880;16.658;2023-07-16T02:02:43;20.80;1.00
26907;DHT22;14472;56.880;16.658;2023-07-16T02:05:09;20.80;1.00
26907;DHT22;14472;56.880;16.658;2023-07-16T02:07:35;20.90;1.00
26907;DHT22;14472;56.880;16.658;2023-07-16T02:10:00;20.80;1.00
26907;DHT22;14472;56.880;16.658;2023-07-16T02:12:26;20.90;1.00
26907;DHT22;14472;56.880;16.658;2023-07-16T02:14:52;20.80;1.00
26907;DHT22;14472;56.880;16.658;2023-07-16T02:17:17;20.90;1.00
26907;DHT22;14472;56.880;16.658;2023-07-16T02:19:43;20.90;1.00
26907;DHT22;14472;56.880;16.658;2023-07-16T02:22:09;20.90;1.00
26907;DHT22;14472;56.880;16.658;2023-07-16T02:24:35;20.90;1.00
26907;DHT22;14472;56.880;16.658;2023-07-16T02:27:01;20.90;1.00
26907;DHT22;14472;56.880;16.658;2023-07-16T02:29:27;20.90;1.00
26907;DHT22;14472;56.880;16.658;2023-07-16T02:31:52;20.90;1.00
26907;DHT22;14472;56.880;16.658;2023-07-16T02:34:18;20.90;1.00
26907;DHT22;14472;56.880;16.658;2023-07-16T02:36:44;20.90;1.00
26907;DHT22;14472;56.880;16.658;2023-07-16T02:39:09;20.90;1.00
26907;DHT22;14472;56.880;16.658;2023-07-16T02:41:35;20.90;1.00
26907;DHT22;14472;56.880;16.658;2023-07-16T02:44:03;20.90;1.00
26907;DHT22;14472;56.880;16.658;2023-07-16T02:46:29;20.90;1.00
26907;DHT22;14472;56.880;16.658;2023-07-16T02:48:55;20.90;1.00
26907;DHT22;14472;56.880;16.658;2023-07-16T02:51:21;20.90;1.00
26907;DHT22;14472;56.880;16.658;2023-07-16T02:53:47;20.90;1.00
26907;DHT22;14472;56.880;16.658;2023-07-16T02:56:12;20.90;1.00
26907;DHT22;14472;56.880;16.658;2023-07-16T02:58:38;20.90;1.00
26907;DHT22;14472;56.880;16.658;2023-07-16T03:01:04;20.90;1.00
26907;DHT22;14472;56.880;16.658;2023-07-16T03:03:29;20.90;1.00
26907;DHT22;14472;56.880;16.658;2023-07-16T03:05:55;20.80;1.00
26907;DHT22;14472;56.880;16.658;2023-07-16T03:08:21;20.90;1.00
26907;DHT22;14472;56.880;16.658;2023-07-16T03:10:48;20.80;1.00
26907;DHT22;14472;56.880;16.658;2023-07-16T03:13:13;20.90;1.00
26907;DHT22;14472;56.880;16.658;2023-07-16T03:15:39;20.80;1.00
26907;DHT22;14472;56.880;16.658;2023-07-16T03:18:05;20.80;1.00
26907;DHT22;14472;56.880;16.658;2023-07-16T03:20:30;20.80;1.00
26907;DHT22;14472;56.880;16.658;2023-07-16T03:22:56;20.80;1.00
26907;DHT22;14472;56.880;16.658;2023-07-16T03:25:22;20.80;1.00
26907;DHT22;14472;56.880;16.658;2023-07-16T03:27:48;20.80;1.00
26907;DHT22;14472;56.880;16.658;2023-07-16T03:30:13;20.80;1.00
26907;DHT22;14472;56.880;16.658;2023-07-16T03:32:39;20.80;1.00
26907;DHT22;14472;56.880;16.658;2023-07-16T03:35:05;20.80;1.00
26907;DHT22;14472;56.880;16.658;2023-07-16T03:37:31;20.80;1.00
26907;DHT22;14472;56.880;16.658;2023-07-16T03:40:01;20.80;1.00
26907;DHT22;14472;56.880;16.658;2023-07-16T03:42:36;20.80;1.00
26907;DHT22;14472;56.880;16.658;2023-07-16T03:45:02;20.80;1.00
26907;DHT22;14472;56.880;16.658;2023-07-16T03:47:28;20.80;1.00
26907;DHT22;14472;56.880;16.658;2023-07-16T03:49:54;20.80;1.40
26907;DHT22;14472;56.880;16.658;2023-07-16T03:52:19;20.80;1.40
26907;DHT22;14472;56.880;16.658;2023-07-16T03:54:45;20.80;1.40
26907;DHT22;14472;56.880;16.658;2023-07-16T03:57:11;20.80;3.00
26907;DHT22;14472;56.880;16.658;2023-07-16T03:59:36;20.80;3.10
26907;DHT22;14472;56.880;16.658;2023-07-16T04:02:02;20.80;4.60
26907;DHT22;14472;56.880;16.658;2023-07-16T04:04:28;20.80;5.20
26907;DHT22;14472;56.880;16.658;2023-07-16T04:06:54;20.80;5.70
26907;DHT22;14472;56.880;16.658;2023-07-16T04:09:20;20.80;7.40
26907;DHT22;14472;56.880;16.658;2023-07-16T04:11:46;20.80;7.10
26907;DHT22;14472;56.880;16.658;2023-07-16T04:14:12;20.80;8.80
26907;DHT22;14472;56.880;16.658;2023-07-16T04:16:38;20.80;8.60
26907;DHT22;14472;56.880;16.658;2023-07-16T04:19:03;20.90;10.00
26907;DHT22;14472;56.880;16.658;2023-07-16T04:21:30;20.80;12.00
26907;DHT22;14472;56.880;16.658;2023-07-16T04:23:56;20.90;12.50
26907;DHT22;14472;56.880;16.658;2023-07-16T04:26:21;20.90;12.70
26907;DHT22;14472;56.880;16.658;2023-07-16T04:28:47;20.90;12.70
26907;DHT22;14472;56.880;16.658;2023-07-16T04:31:13;20.90;12.70
26907;DHT22;14472;56.880;16.658;2023-07-16T04:33:39;20.90;13.90
26907;DHT22;14472;56.880;16.658;2023-07-16T04:36:04;20.90;14.10
26907;DHT22;14472;56.880;16.658;2023-07-16T04:38:30;20.90;14.30
26907;DHT22;14472;56.880;16.658;2023-07-16T04:40:56;20.90;14.70
26907;DHT22;14472;56.880;16.658;2023-07-16T04:43:21;20.90;16.00
26907;DHT22;14472;56.880;16.658;2023-07-16T04:45:47;20.90;16.10
26907;DHT22;14472;56.880;16.658;2023-07-16T04:48:13;20.90;16.10
26907;DHT22;14472;56.880;16.658;2023-07-16T04:50:39;20.90;17.50
26907;DHT22;14472;56.880;16.658;2023-07-16T04:53:05;21.00;16.70
26907;DHT22;14472;56.880;16.658;2023-07-16T04:55:38;21.00;17.50
26907;DHT22;14472;56.880;16.658;2023-07-16T04:58:05;21.00;17.80
26907;DHT22;14472;56.880;16.658;2023-07-16T05:00:33;21.00;17.10
26907;DHT22;14472;56.880;16.658;2023-07-16T05:02:59;21.00;18.90
26907;DHT22;14472;56.880;16.658;2023-07-16T05:05:25;21.00;19.30
26907;DHT22;14472;56.880;16.658;2023-07-16T05:07:51;21.00;19.40
26907;DHT22;14472;56.880;16.658;2023-07-16T05:10:16;21.00;20.40
26907;DHT22;14472;56.880;16.658;2023-07-16T05:12:42;21.00;19.70
26907;DHT22;14472;56.880;16.658;2023-07-16T05:15:08;21.00;20.10
26907;DHT22;14472;56.880;16.658;2023-07-16T05:17:34;21.00;20.30
26907;DHT22;14472;56.880;16.658;2023-07-16T05:20:00;21.00;21.20
26907;DHT22;14472;56.880;16.658;2023-07-16T05:22:25;21.00;21.10
26907;DHT22;14472;56.880;16.658;2023-07-16T05:24:51;21.00;20.80
26907;DHT22;14472;56.880;16.658;2023-07-16T05:27:17;21.00;20.40
26907;DHT22;14472;56.880;16.658;2023-07-16T05:29:42;21.10;22.40
26907;DHT22;14472;56.880;16.658;2023-07-16T05:32:09;21.10;21.80
26907;DHT22;14472;56.880;16.658;2023-07-16T05:34:34;21.10;22.10
26907;DHT22;14472;56.880;16.658;2023-07-16T05:37:00;21.10;23.60
26907;DHT22;14472;56.880;16.658;2023-07-16T05:39:26;21.10;24.20
26907;DHT22;14472;56.880;16.658;2023-07-16T05:41:52;21.10;23.60
26907;DHT22;14472;56.880;16.658;2023-07-16T05:44:17;21.00;23.60
26907;DHT22;14472;56.880;16.658;2023-07-16T05:46:43;21.10;26.20
26907;DHT22;14472;56.880;16.658;2023-07-16T05:49:09;21.10;26.00
26907;DHT22;14472;56.880;16.658;2023-07-16T05:51:34;21.10;36.60
26907;DHT22;14472;56.880;16.658;2023-07-16T05:54:00;21.10;51.90
26907;DHT22;14472;56.880;16.658;2023-07-16T05:56:26;21.10;61.10
26907;DHT22;14472;56.880;16.658;2023-07-16T05:58:51;21.10;70.60
26907;DHT22;14472;56.880;16.658;2023-07-16T06:01:17;21.10;75.00
26907;DHT22;14472;56.880;16.658;2023-07-16T06:03:43;21.20;76.30
26907;DHT22;14472;56.880;16.658;2023-07-16T06:06:09;21.20;81.20
26907;DHT22;14472;56.880;16.658;2023-07-16T06:08:35;21.20;88.90
26907;DHT22;14472;56.880;16.658;2023-07-16T06:11:00;21.20;90.20
26907;DHT22;14472;56.880;16.658;2023-07-16T06:13:26;21.30;90.10
26907;DHT22;14472;56.880;16.658;2023-07-16T06:15:52;21.20;86.10
26907;DHT22;14472;56.880;16.658;2023-07-16T06:18:18;21.20;86.80
26907;DHT22;14472;56.880;16.658;2023-07-16T06:20:47;21.30;88.90
26907;DHT22;14472;56.880;16.658;2023-07-16T06:23:13;21.30;93.40
26907;DHT22;14472;56.880;16.658;2023-07-16T06:25:39;21.30;95.50
26907;DHT22;14472;56.880;16.658;2023-07-16T06:28:10;21.30;95.60
26907;DHT22;14472;56.880;16.658;2023-07-16T06:30:37;21.30;95.50
26907;DHT22;14472;56.880;16.658;2023-07-16T06:33:02;21.30;96.20
26907;DHT22;14472;56.880;16.658;2023-07-16T06:35:28;21.40;96.90
26907;DHT22;14472;56.880;16.658;2023-07-16T06:37:54;21.40;96.90
26907;DHT22;14472;56.880;16.658;2023-07-16T06:40:19;21.30;98.40
26907;DHT22;14472;56.880;16.658;2023-07-16T06:42:45;21.30;99.90
26907;DHT22;14472;56.880;16.658;2023-07-16T06:45:11;21.30;99.90
26907;DHT22;14472;56.880;16.658;2023-07-16T06:47:37;21.30;99.90
26907;DHT22;14472;56.880;16.658;2023-07-16T06:50:02;21.20;99.90
26907;DHT22;14472;56.880;16.658;2023-07-16T06:52:28;21.20;99.90
26907;DHT22;14472;56.880;16.658;2023-07-16T06:54:56;21.20;99.90
26907;DHT22;14472;56.880;16.658;2023-07-16T06:57:23;21.20;99.90
26907;DHT22;14472;56.880;16.658;2023-07-16T06:59:49;21.20;99.90
26907;DHT22;14472;56.880;16.658;2023-07-16T07:02:16;21.20;99.90
26907;DHT22;14472;56.880;16.658;2023-07-16T07:04:42;21.20;99.90
26907;DHT22;14472;56.880;16.658;2023-07-16T07:07:08;21.20;99.90
26907;DHT22;14472;56.880;16.658;2023-07-16T07:09:34;21.30;99.90
26907;DHT22;14472;56.880;16.658;2023-07-16T07:12:00;21.30;99.90
26907;DHT22;14472;56.880;16.658;2023-07-16T07:14:26;21.30;99.90
26907;DHT22;14472;56.880;16.658;2023-07-16T07:16:51;21.40;99.90
26907;DHT22;14472;56.880;16.658;2023-07-16T07:19:17;21.40;99.90
26907;DHT22;14472;56.880;16.658;2023-07-16T07:21:43;21.40;99.90
26907;DHT22;14472;56.880;16.658;2023-07-16T07:24:08;21.40;99.90
26907;DHT22;14472;56.880;16.658;2023-07-16T07:26:34;21.50;99.90
26907;DHT22;14472;56.880;16.658;2023-07-16T07:29:00;21.50;99.90
26907;DHT22;14472;56.880;16.658;2023-07-16T07:31:26;21.50;99.90
26907;DHT22;14472;56.880;16.658;2023-07-16T07:33:52;21.50;99.90
26907;DHT22;14472;56.880;16.658;2023-07-16T07:36:19;21.40;99.90
26907;DHT22;14472;56.880;16.658;2023-07-16T07:38:45;21.50;99.90
26907;DHT22;14472;56.880;16.658;2023-07-16T07:41:10;21.50;99.90
26907;DHT22;14472;56.880;16.658;2023-07-16T07:43:36;21.50;99.90
26907;DHT22;14472;56.880;16.658;2023-07-16T07:46:02;21.50;99.90
26907;DHT22;14472;56.880;16.658;2023-07-16T07:48:28;21.50;99.90
26907;DHT22;14472;56.880;16.658;2023-07-16T07:50:53;21.50;99.90
26907;DHT22;14472;56.880;16.658;2023-07-16T07:53:19;21.40;99.90
26907;DHT22;14472;56.880;16.658;2023-07-16T07:55:45;21.40;99.90
26907;DHT22;14472;56.880;16.658;2023-07-16T07:58:11;21.40;99.90
26907;DHT22;14472;56.880;16.658;2023-07-16T08:00:38;21.40;99.90
26907;DHT22;14472;56.880;16.658;2023-07-16T08:03:04;21.40;99.90
26907;DHT22;14472;56.880;16.658;2023-07-16T08:05:29;21.30;99.90
26907;DHT22;14472;56.880;16.658;2023-07-16T08:07:55;21.30;99.90
26907;DHT22;14472;56.880;16.658;2023-07-16T08:10:21;21.30;99.90
26907;DHT22;14472;56.880;16.658;2023-07-16T08:12:47;21.30;99.90
26907;DHT22;14472;56.880;16.658;2023-07-16T08:15:13;21.20;99.90
26907;DHT22;14472;56.880;16.658;2023-07-16T08:17:44;21.20;99.90
26907;DHT22;14472;56.880;16.658;2023-07-16T08:20:11;21.20;99.90
26907;DHT22;14472;56.880;16.658;2023-07-16T08:22:37;21.20;99.90
26907;DHT22;14472;56.880;16.658;2023-07-16T08:25:03;21.20;99.90
26907;DHT22;14472;56.880;16.658;2023-07-16T08:27:29;21.20;99.90
26907;DHT22;14472;56.880;16.658;2023-07-16T08:29:55;21.10;99.90
26907;DHT22;14472;56.880;16.658;2023-07-16T08:32:22;21.20;99.90
26907;DHT22;14472;56.880;16.658;2023-07-16T08:34:48;21.20;99.90
26907;DHT22;14472;56.880;16.658;2023-07-16T08:37:14;21.10;99.90
26907;DHT22;14472;56.880;16.658;2023-07-16T08:39:39;21.10;99.90
26907;DHT22;14472;56.880;16.658;2023-07-16T08:42:06;21.10;99.90
26907;DHT22;14472;56.880;16.658;2023-07-16T08:44:31;21.10;99.90
26907;DHT22;14472;56.880;16.658;2023-07-16T08:46:58;21.10;99.90
26907;DHT22;14472;56.880;16.658;2023-07-16T08:49:25;21.10;99.90
26907;DHT22;14472;56.880;16.658;2023-07-16T08:51:54;21.10;99.90
26907;DHT22;14472;56.880;16.658;2023-07-16T08:54:22;21.00;99.90
26907;DHT22;14472;56.880;16.658;2023-07-16T08:56:48;21.00;99.90
26907;DHT22;14472;56.880;16.658;2023-07-16T08:59:18;21.00;99.90
26907;DHT22;14472;56.880;16.658;2023-07-16T09:01:46;21.00;99.90
26907;DHT22;14472;56.880;16.658;2023-07-16T09:04:12;21.00;99.90
26907;DHT22;14472;56.880;16.658;2023-07-16T09:06:38;21.00;99.90
26907;DHT22;14472;56.880;16.658;2023-07-16T09:09:04;21.00;99.90
26907;DHT22;14472;56.880;16.658;2023-07-16T09:11:30;20.90;99.90
26907;DHT22;14472;56.880;16.658;2023-07-16T09:13:55;20.90;99.90
26907;DHT22;14472;56.880;16.658;2023-07-16T09:16:21;20.90;99.90
26907;DHT22;14472;56.880;16.658;2023-07-16T09:18:47;20.80;99.90
26907;DHT22;14472;56.880;16.658;2023-07-16T09:21:13;20.80;99.90
26907;DHT22;14472;56.880;16.658;2023-07-16T09:23:39;20.90;99.90
26907;DHT22;14472;56.880;16.658;2023-07-16T09:26:07;20.90;99.90
26907;DHT22;14472;56.880;16.658;2023-07-16T09:28:33;20.90;99.90
26907;DHT22;14472;56.880;16.658;2023-07-16T09:31:08;21.00;99.90
26907;DHT22;14472;56.880;16.658;2023-07-16T09:33:34;21.10;99.90
26907;DHT22;14472;56.880;16.658;2023-07-16T09:36:00;21.10;99.90
26907;DHT22;14472;56.880;16.658;2023-07-16T09:38:28;21.10;99.90
26907;DHT22;14472;56.880;16.658;2023-07-16T09:40:56;21.20;99.90
26907;DHT22;14472;56.880;16.658;2023-07-16T09:43:21;21.30;99.90
26907;DHT22;14472;56.880;16.658;2023-07-16T09:45:47;21.30;99.90
26907;DHT22;14472;56.880;16.658;2023-07-16T09:48:14;21.30;99.90
26907;DHT22;14472;56.880;16.658;2023-07-16T09:50:53;21.40;99.90
26907;DHT22;14472;56.880;16.658;2023-07-16T09:53:20;21.50;99.90
26907;DHT22;14472;56.880;16.658;2023-07-16T09:55:49;21.50;99.90
26907;DHT22;14472;56.880;16.658;2023-07-16T09:58:18;21.50;99.90
26907;DHT22;14472;56.880;16.658;2023-07-16T10:00:46;21.50;99.90
26907;DHT22;14472;56.880;16.658;2023-07-16T10:03:13;21.60;99.90
26907;DHT22;14472;56.880;16.658;2023-07-16T10:05:40;21.60;99.90
26907;DHT22;14472;56.880;16.658;2023-07-16T10:08:16;21.70;99.90
26907;DHT22;14472;56.880;16.658;2023-07-16T10:13:11;21.80;99.90
26907;DHT22;14472;56.880;16.658;2023-07-16T10:15:37;21.80;99.90
26907;DHT22;14472;56.880;16.658;2023-07-16T10:18:03;21.90;99.90
26907;DHT22;14472;56.880;16.658;2023-07-16T10:20:36;22.00;99.90
26907;DHT22;14472;56.880;16.658;2023-07-16T10:23:15;22.10;99.90
26907;DHT22;14472;56.880;16.658;2023-07-16T10:25:58;22.20;99.90
26907;DHT22;14472;56.880;16.658;2023-07-16T10:28:24;22.20;99.90
26907;DHT22;14472;56.880;16.658;2023-07-16T10:30:50;22.30;91.40
26907;DHT22;14472;56.880;16.658;2023-07-16T10:33:15;22.30;81.90
26907;DHT22;14472;56.880;16.658;2023-07-16T10:35:42;22.40;54.30
26907;DHT22;14472;56.880;16.658;2023-07-16T10:38:08;22.40;33.60
26907;DHT22;14472;56.880;16.658;2023-07-16T10:40:43;22.50;26.20
26907;DHT22;14472;56.880;16.658;2023-07-16T10:43:09;22.50;13.80
26907;DHT22;14472;56.880;16.658;2023-07-16T10:45:35;22.60;1.00
26907;DHT22;14472;56.880;16.658;2023-07-16T10:48:01;22.60;1.00
26907;DHT22;14472;56.880;16.658;2023-07-16T10:50:26;22.70;1.00
26907;DHT22;14472;56.880;16.658;2023-07-16T10:52:53;22.70;1.00
26907;DHT22;14472;56.880;16.658;2023-07-16T10:55:19;22.80;1.00
26907;DHT22;14472;56.880;16.658;2023-07-16T10:57:47;22.80;1.00
26907;DHT22;14472;56.880;16.658;2023-07-16T11:00:15;22.80;1.00
26907;DHT22;14472;56.880;16.658;2023-07-16T11:02:42;22.90;1.00
26907;DHT22;14472;56.880;16.658;2023-07-16T11:05:13;23.00;1.00
26907;DHT22;14472;56.880;16.658;2023-07-16T11:07:43;23.00;1.00
26907;DHT22;14472;56.880;16.658;2023-07-16T11:10:10;23.10;1.00
26907;DHT22;14472;56.880;16.658;2023-07-16T11:12:35;23.10;1.00
26907;DHT22;14472;56.880;16.658;2023-07-16T11:15:01;23.10;1.00
26907;DHT22;14472;56.880;16.658;2023-07-16T11:17:27;23.20;1.00
26907;DHT22;14472;56.880;16.658;2023-07-16T11:19:53;23.20;1.00
26907;DHT22;14472;56.880;16.658;2023-07-16T11:22:24;23.20;1.00
26907;DHT22;14472;56.880;16.658;2023-07-16T11:24:51;23.30;1.00
26907;DHT22;14472;56.880;16.658;2023-07-16T11:27:30;23.40;1.00
26907;DHT22;14472;56.880;16.658;2023-07-16T11:29:59;23.40;1.00
26907;DHT22;14472;56.880;16.658;2023-07-16T11:32:32;23.50;1.00
26907;DHT22;14472;56.880;16.658;2023-07-16T11:35:05;23.50;1.00
26907;DHT22;14472;56.880;16.658;2023-07-16T11:37:34;23.60;1.00
26907;DHT22;14472;56.880;16.658;2023-07-16T11:40:08;23.70;1.00
26907;DHT22;14472;56.880;16.658;2023-07-16T11:42:36;23.70;1.00
26907;DHT22;14472;56.880;16.658;2023-07-16T11:45:03;23.70;1.00
26907;DHT22;14472;56.880;16.658;2023-07-16T11:47:29;23.80;1.00
26907;DHT22;14472;56.880;16.658;2023-07-16T11:49:55;23.90;1.00
26907;DHT22;14472;56.880;16.658;2023-07-16T11:52:26;23.90;1.00
26907;DHT22;14472;56.880;16.658;2023-07-16T11:54:53;23.90;1.00
26907;DHT22;14472;56.880;16.658;2023-07-16T11:57:19;24.00;1.00
26907;DHT22;14472;56.880;16.658;2023-07-16T11:59:45;24.10;1.00
26907;DHT22;14472;56.880;16.658;2023-07-16T12:02:12;24.10;1.00
26907;DHT22;14472;56.880;16.658;2023-07-16T12:04:38;24.20;1.00
26907;DHT22;14472;56.880;16.658;2023-07-16T12:07:04;24.20;1.00
26907;DHT22;14472;56.880;16.658;2023-07-16T12:09:30;24.20;1.00
26907;DHT22;14472;56.880;16.658;2023-07-16T12:11:56;24.30;1.00
26907;DHT22;14472;56.880;16.658;2023-07-16T12:14:22;24.40;1.00
26907;DHT22;14472;56.880;16.658;2023-07-16T12:16:48;24.50;1.00
26907;DHT22;14472;56.880;16.658;2023-07-16T12:19:14;24.60;1.00
26907;DHT22;14472;56.880;16.658;2023-07-16T12:21:39;24.70;1.00
26907;DHT22;14472;56.880;16.658;2023-07-16T12:24:05;24.70;1.00
26907;DHT22;14472;56.880;16.658;2023-07-16T12:26:31;24.60;1.00
26907;DHT22;14472;56.880;16.658;2023-07-16T12:28:57;24.70;1.00
26907;DHT22;14472;56.880;16.658;2023-07-16T12:31:23;24.80;1.00
26907;DHT22;14472;56.880;16.658;2023-07-16T12:33:49;24.80;1.00
26907;DHT22;14472;56.880;16.658;2023-07-16T12:36:15;24.90;1.00
26907;DHT22;14472;56.880;16.658;2023-07-16T12:38:41;25.00;1.00
26907;DHT22;14472;56.880;16.658;2023-07-16T12:41:07;25.00;1.00
26907;DHT22;14472;56.880;16.658;2023-07-16T12:43:33;25.00;1.00
26907;DHT22;14472;56.880;16.658;2023-07-16T12:46:03;25.10;1.00
26907;DHT22;14472;56.880;16.658;2023-07-16T12:48:32;25.10;1.00
26907;DHT22;14472;56.880;16.658;2023-07-16T12:50:58;25.20;1.00
26907;DHT22;14472;56.880;16.658;2023-07-16T12:53:25;25.30;1.00
26907;DHT22;14472;56.880;16.658;2023-07-16T12:55:51;25.30;1.00
26907;DHT22;14472;56.880;16.658;2023-07-16T12:58:17;25.30;1.00
26907;DHT22;14472;56.880;16.658;2023-07-16T13:00:42;25.40;1.00
26907;DHT22;14472;56.880;16.658;2023-07-16T13:03:08;25.50;1.00
26907;DHT22;14472;56.880;16.658;2023-07-16T13:05:37;25.50;1.00
26907;DHT22;14472;56.880;16.658;2023-07-16T13:08:06;25.40;1.00
26907;DHT22;14472;56.880;16.658;2023-07-16T13:10:32;25.50;1.00
26907;DHT22;14472;56.880;16.658;2023-07-16T13:12:58;25.60;1.00
26907;DHT22;14472;56.880;16.658;2023-07-16T13:15:24;25.60;1.00
26907;DHT22;14472;56.880;16.658;2023-07-16T13:17:50;25.60;1.00
26907;DHT22;14472;56.880;16.658;2023-07-16T13:20:16;25.50;1.00
26907;DHT22;14472;56.880;16.658;2023-07-16T13:22:43;25.60;1.00
26907;DHT22;14472;56.880;16.658;2023-07-16T13:25:09;25.60;1.00
26907;DHT22;14472;56.880;16.658;2023-07-16T13:27:34;25.60;1.00
26907;DHT22;14472;56.880;16.658;2023-07-16T13:30:00;25.70;1.00
26907;DHT22;14472;56.880;16.658;2023-07-16T13:32:26;25.70;1.00
26907;DHT22;14472;56.880;16.658;2023-07-16T13:34:54;25.60;1.00
26907;DHT22;14472;56.880;16.658;2023-07-16T13:37:21;25.60;1.00
26907;DHT22;14472;56.880;16.658;2023-07-16T13:39:46;25.50;1.00
26907;DHT22;14472;56.880;16.658;2023-07-16T13:42:12;25.50;1.00
26907;DHT22;14472;56.880;16.658;2023-07-16T13:44:38;25.40;1.00
26907;DHT22;14472;56.880;16.658;2023-07-16T13:47:07;25.40;1.00
26907;DHT22;14472;56.880;16.658;2023-07-16T13:49:33;25.40;1.00
26907;DHT22;14472;56.880;16.658;2023-07-16T13:51:58;25.50;1.00
26907;DHT22;14472;56.880;16.658;2023-07-16T13:54:24;25.50;1.00
26907;DHT22;14472;56.880;16.658;2023-07-16T13:56:50;25.50;1.00
26907;DHT22;14472;56.880;16.658;2023-07-16T13:59:16;25.50;1.00
26907;DHT22;14472;56.880;16.658;2023-07-16T14:01:41;25.50;1.00
26907;DHT22;14472;56.880;16.658;2023-07-16T14:04:07;25.60;1.00
26907;DHT22;14472;56.880;16.658;2023-07-16T14:06:33;25.70;1.00
26907;DHT22;14472;56.880;16.658;2023-07-16T14:08:59;25.70;1.00
26907;DHT22;14472;56.880;16.658;2023-07-16T14:11:25;25.70;1.00
26907;DHT22;14472;56.880;16.658;2023-07-16T14:13:51;25.60;1.00
26907;DHT22;14472;56.880;16.658;2023-07-16T14:16:21;25.60;1.00
26907;DHT22;14472;56.880;16.658;2023-07-16T14:18:52;25.60;1.00
26907;DHT22;14472;56.880;16.658;2023-07-16T14:21:19;25.60;1.00
26907;DHT22;14472;56.880;16.658;2023-07-16T14:23:45;25.60;1.00
26907;DHT22;14472;56.880;16.658;2023-07-16T14:26:11;25.60;1.00
26907;DHT22;14472;56.880;16.658;2023-07-16T14:28:37;25.60;1.00
26907;DHT22;14472;56.880;16.658;2023-07-16T14:31:03;25.60;1.00
26907;DHT22;14472;56.880;16.658;2023-07-16T14:33:29;25.70;1.00
26907;DHT22;14472;56.880;16.658;2023-07-16T14:35:56;25.70;1.00
26907;DHT22;14472;56.880;16.658;2023-07-16T14:38:22;25.70;1.00
26907;DHT22;14472;56.880;16.658;2023-07-16T14:40:47;25.70;1.00
26907;DHT22;14472;56.880;16.658;2023-07-16T14:43:14;25.70;1.00
26907;DHT22;14472;56.880;16.658;2023-07-16T14:45:40;25.70;1.00
26907;DHT22;14472;56.880;16.658;2023-07-16T14:48:06;25.70;1.00
26907;DHT22;14472;56.880;16.658;2023-07-16T14:50:32;25.60;1.00
26907;DHT22;14472;56.880;16.658;2023-07-16T14:52:57;25.60;1.00
26907;DHT22;14472;56.880;16.658;2023-07-16T14:55:23;25.60;1.00
26907;DHT22;14472;56.880;16.658;2023-07-16T14:57:49;25.50;1.00
26907;DHT22;14472;56.880;16.658;2023-07-16T15:00:15;25.40;1.00
26907;DHT22;14472;56.880;16.658;2023-07-16T15:02:42;25.50;1.00
26907;DHT22;14472;56.880;16.658;2023-07-16T15:05:09;25.50;1.00
26907;DHT22;14472;56.880;16.658;2023-07-16T15:07:35;25.40;1.00
26907;DHT22;14472;56.880;16.658;2023-07-16T15:10:02;25.30;1.00
26907;DHT22;14472;56.880;16.658;2023-07-16T15:12:28;25.40;1.00
26907;DHT22;14472;56.880;16.658;2023-07-16T15:14:54;25.30;1.00
26907;DHT22;14472;56.880;16.658;2023-07-16T15:17:20;25.30;1.00
26907;DHT22;14472;56.880;16.658;2023-07-16T15:19:48;25.30;1.00
26907;DHT22;14472;56.880;16.658;2023-07-16T15:22:14;25.30;1.00
26907;DHT22;14472;56.880;16.658;2023-07-16T15:24:43;25.30;1.00
26907;DHT22;14472;56.880;16.658;2023-07-16T15:27:09;25.20;1.00
26907;DHT22;14472;56.880;16.658;2023-07-16T15:29:35;25.30;1.00
26907;DHT22;14472;56.880;16.658;2023-07-16T15:32:00;25.30;1.00